createdAt,value
2019-03-26T00:01:16.283Z,102133.37
2019-03-26T00:06:20.094Z,102139.02
2019-03-26T00:11:23.593Z,102136.14
2019-03-26T00:16:27.033Z,102128.23
2019-03-26T00:21:31.266Z,102119.47
2019-03-26T00:26:35.143Z,102115.84
2019-03-26T00:31:39.017Z,102116.11
2019-03-26T00:36:42.439Z,102117.23
2019-03-26T00:41:45.964Z,102113.61
2019-03-26T00:46:49.369Z,102115.00
2019-03-26T00:51:53.497Z,102104.98
2019-03-26T00:56:56.911Z,102105.49
2019-03-26T01:02:00.838Z,102095.58
2019-03-26T01:07:04.728Z,102098.83
2019-03-26T01:12:08.584Z,102087.20
2019-03-26T01:17:12.518Z,102093.58
2019-03-26T01:22:16.690Z,102088.32
2019-03-26T01:27:19.359Z,102094.72
2019-03-26T01:32:23.173Z,102093.19
2019-03-26T01:37:27.589Z,102087.20
2019-03-26T01:42:34.508Z,102081.20
2019-03-26T01:47:38.333Z,102086.45
2019-03-26T01:52:42.490Z,102091.70
2019-03-26T01:57:46.727Z,102085.89
2019-03-26T02:02:50.468Z,102076.98
2019-03-26T02:07:55.811Z,102092.13
2019-03-26T02:12:59.719Z,102086.78
2019-03-26T02:18:02.872Z,102080.28
2019-03-26T02:23:06.629Z,102083.12
2019-03-26T02:28:13.197Z,102071.03
2019-03-26T02:33:16.739Z,102078.04
2019-03-26T02:38:20.177Z,102071.54
2019-03-26T02:43:24.389Z,102073.24
2019-03-26T02:48:27.805Z,102076.98
2019-03-26T02:53:30.917Z,102074.63
2019-03-26T02:58:34.744Z,102071.13
2019-03-26T03:03:38.915Z,102070.98
2019-03-26T03:08:42.701Z,102059.98
2019-03-26T03:13:46.525Z,102053.25
2019-03-26T03:18:49.955Z,102053.98
2019-03-26T03:23:53.868Z,102051.58
2019-03-26T03:28:58.101Z,102057.48
2019-03-26T03:34:02.091Z,102047.34
2019-03-26T03:39:07.096Z,102035.77
2019-03-26T03:44:10.188Z,102038.39
2019-03-26T03:49:16.056Z,102029.80
2019-03-26T03:54:20.706Z,102031.42
2019-03-26T03:59:26.020Z,102039.55
2019-03-26T04:04:29.889Z,102033.55
2019-03-26T04:09:33.996Z,102046.30
2019-03-26T04:14:37.905Z,102043.19
2019-03-26T04:19:41.876Z,102030.66
2019-03-26T04:24:45.694Z,102027.53
2019-03-26T04:29:49.472Z,102026.02
2019-03-26T04:34:52.829Z,102017.13
2019-03-26T04:39:56.653Z,102013.09
2019-03-26T04:45:00.486Z,102006.31
2019-03-26T04:50:04.671Z,102002.53
2019-03-26T04:55:08.609Z,102002.56
2019-03-26T05:00:12.483Z,102004.77
2019-03-26T05:05:16.292Z,102002.41
2019-03-26T05:10:19.519Z,102008.45
2019-03-26T05:15:23.685Z,102005.58
2019-03-26T05:20:27.525Z,102008.56
2019-03-26T05:25:30.645Z,102007.91
2019-03-26T05:30:34.141Z,102017.47
2019-03-26T05:35:37.912Z,102003.08
2019-03-26T05:40:41.956Z,102000.91
2019-03-26T05:45:45.414Z,102012.28
2019-03-26T05:50:49.177Z,102017.44
2019-03-26T05:55:52.262Z,102014.09
2019-03-26T06:00:56.282Z,102013.37
2019-03-26T06:05:59.497Z,102019.07
2019-03-26T06:11:02.617Z,102014.52
2019-03-26T06:16:05.690Z,102022.66
2019-03-26T06:21:08.747Z,102019.84
2019-03-26T06:26:12.579Z,102005.22
2019-03-26T06:31:16.466Z,102006.31
2019-03-26T06:36:19.919Z,102011.27
2019-03-26T06:41:24.105Z,102006.06
2019-03-26T06:46:27.963Z,102007.73
2019-03-26T06:51:31.801Z,102001.20
2019-03-26T06:56:35.291Z,102012.58
2019-03-26T07:01:39.148Z,102004.95
2019-03-26T07:06:43.367Z,102005.56
2019-03-26T07:11:46.462Z,101994.72
2019-03-26T07:16:50.309Z,101996.73
2019-03-26T07:21:54.119Z,101999.71
2019-03-26T07:26:58.557Z,102001.86
2019-03-26T07:32:02.663Z,101994.78
2019-03-26T07:37:06.855Z,101999.66
2019-03-26T07:42:11.073Z,101997.26
2019-03-26T07:47:14.890Z,102008.31
2019-03-26T07:52:18.296Z,102010.44
2019-03-26T07:57:22.482Z,102003.61
2019-03-26T08:02:25.539Z,101992.58
2019-03-26T08:07:29.369Z,101972.06
2019-03-26T08:12:33.019Z,101977.09
2019-03-26T08:17:36.286Z,101968.60
2019-03-26T08:22:39.717Z,101985.19
2019-03-26T08:27:43.188Z,101991.70
2019-03-26T08:32:47.048Z,101988.69
2019-03-26T08:37:50.856Z,101986.11
2019-03-26T08:42:55.016Z,101981.88
2019-03-26T08:47:59.194Z,101983.16
2019-03-26T08:53:03.069Z,101992.72
2019-03-26T08:58:07.302Z,102007.99
2019-03-26T09:03:11.359Z,102008.18
2019-03-26T09:08:24.888Z,102003.92
2019-03-26T09:13:20.571Z,102001.23
2019-03-26T09:18:23.266Z,102014.25
2019-03-26T09:23:26.734Z,102018.17
2019-03-26T09:28:30.972Z,102023.28
2019-03-26T09:33:34.662Z,102023.84
2019-03-26T09:38:39.491Z,102024.55
2019-03-26T09:43:43.271Z,102038.19
2019-03-26T09:48:47.013Z,102023.51
2019-03-26T09:53:50.812Z,102021.98
2019-03-26T09:58:54.329Z,102026.96
2019-03-26T10:03:58.557Z,102029.47
2019-03-26T10:09:02.480Z,102011.58
2019-03-26T10:14:05.907Z,102008.95
2019-03-26T10:19:10.068Z,102002.78
2019-03-26T10:24:13.613Z,102014.31
2019-03-26T10:29:29.568Z,102017.25
2019-03-26T10:34:22.920Z,102016.81
2019-03-26T10:39:26.686Z,102013.75
2019-03-26T10:44:30.554Z,102017.16
2019-03-26T10:49:34.053Z,102020.20
2019-03-26T10:54:38.219Z,102023.86
2019-03-26T10:59:41.769Z,102015.74
2019-03-26T11:04:45.569Z,102034.48
2019-03-26T11:09:49.050Z,102021.31
2019-03-26T11:14:53.260Z,102022.03
2019-03-26T11:19:56.650Z,102027.28
2019-03-26T11:24:59.731Z,102031.62
2019-03-26T11:30:04.107Z,102029.97
2019-03-26T11:35:08.824Z,102035.91
2019-03-26T11:40:12.955Z,102012.28
2019-03-26T11:45:17.258Z,102025.56
2019-03-26T11:50:20.728Z,102014.88
2019-03-26T11:55:24.868Z,102020.75
2019-03-26T12:00:31.747Z,102000.91
2019-03-26T12:05:35.568Z,102009.73
2019-03-26T12:10:39.052Z,102016.40
2019-03-26T12:15:43.261Z,102015.10
2019-03-26T12:20:48.230Z,102025.13
2019-03-26T12:25:52.099Z,102027.94
2019-03-26T12:30:55.701Z,102024.45
2019-03-26T12:35:59.120Z,102027.02
2019-03-26T12:41:03.296Z,102039.00
2019-03-26T12:46:07.132Z,102030.11
2019-03-26T12:51:11.418Z,102020.20
2019-03-26T12:56:15.243Z,102031.25
2019-03-26T13:01:18.655Z,102034.05
2019-03-26T13:06:22.548Z,102024.83
2019-03-26T13:11:26.431Z,102047.89
2019-03-26T13:16:30.516Z,102053.27
2019-03-26T13:21:37.335Z,102061.63
2019-03-26T13:26:39.877Z,102058.77
2019-03-26T13:31:43.962Z,102067.32
2019-03-26T13:36:47.473Z,102064.98
2019-03-26T13:41:51.306Z,102077.28
2019-03-26T13:46:55.528Z,102087.84
2019-03-26T13:51:59.062Z,102081.60
2019-03-26T13:57:02.886Z,102102.72
2019-03-26T14:02:06.694Z,102102.41
2019-03-26T14:07:10.679Z,102105.05
2019-03-26T14:12:14.636Z,102118.61
2019-03-26T14:17:18.151Z,102112.63
2019-03-26T14:22:22.384Z,102120.70
2019-03-26T14:27:25.436Z,102130.45
2019-03-26T14:32:28.878Z,102125.41
2019-03-26T14:37:32.763Z,102132.31
2019-03-26T14:42:36.930Z,102138.27
2019-03-26T14:47:40.527Z,102138.45
2019-03-26T14:52:44.018Z,102141.48
2019-03-26T14:57:47.545Z,102145.61
2019-03-26T15:02:51.659Z,102138.36
2019-03-26T15:07:55.206Z,102137.70
2019-03-26T15:12:59.016Z,102144.41
2019-03-26T15:18:02.632Z,102146.29
2019-03-26T15:23:06.827Z,102136.88
2019-03-26T15:28:11.883Z,102141.05
2019-03-26T15:33:16.385Z,102130.91
2019-03-26T15:38:20.259Z,102130.28
2019-03-26T15:43:24.302Z,102139.28
2019-03-26T15:48:27.432Z,102137.34
2019-03-26T15:53:30.905Z,102149.45
2019-03-26T15:58:34.754Z,102145.33
2019-03-26T16:03:38.999Z,102145.61
2019-03-26T16:08:43.193Z,102149.41
2019-03-26T16:13:47.482Z,102154.33
2019-03-26T16:18:51.592Z,102152.59
2019-03-26T16:23:55.764Z,102163.06
2019-03-26T16:28:59.623Z,102159.66
2019-03-26T16:34:03.293Z,102163.20
2019-03-26T16:39:08.038Z,102160.05
2019-03-26T16:44:11.926Z,102161.34
2019-03-26T16:49:15.724Z,102161.56
2019-03-26T16:54:20.016Z,102167.12
2019-03-26T16:59:24.188Z,102157.75
2019-03-26T17:04:28.024Z,102173.36
2019-03-26T17:09:38.033Z,102165.39
2019-03-26T17:14:42.009Z,102172.14
2019-03-26T17:19:46.318Z,102178.30
2019-03-26T17:24:50.365Z,102174.05
2019-03-26T17:29:55.436Z,102193.52
2019-03-26T17:35:01.050Z,102200.02
2019-03-26T17:40:05.668Z,102191.70
2019-03-26T17:45:10.263Z,102196.94
2019-03-26T17:50:14.366Z,102220.23
2019-03-26T17:55:18.336Z,102215.48
2019-03-26T18:00:37.064Z,102209.67
2019-03-26T18:05:46.519Z,102211.83
2019-03-26T18:10:51.514Z,102227.81
2019-03-26T18:16:08.406Z,102250.84
2019-03-26T18:21:13.874Z,102243.92
2019-03-26T18:26:19.031Z,102268.82
2019-03-26T18:31:22.983Z,102268.88
2019-03-26T18:36:27.575Z,102274.45
2019-03-26T18:41:34.112Z,102278.41
2019-03-26T18:46:46.936Z,102283.62
2019-03-26T18:51:55.865Z,102295.67
2019-03-26T18:57:01.323Z,102292.70
2019-03-26T19:02:08.421Z,102303.81
2019-03-26T19:07:12.257Z,102304.02
2019-03-26T19:12:15.968Z,102297.80
2019-03-26T19:17:21.007Z,102298.97
2019-03-26T19:22:30.444Z,102292.26
2019-03-26T19:27:35.384Z,102303.67
2019-03-26T19:32:40.625Z,102301.61
2019-03-26T19:37:44.539Z,102306.34
2019-03-26T19:42:48.347Z,102307.03
2019-03-26T19:47:52.627Z,102312.27
2019-03-26T19:53:01.430Z,102303.91
2019-03-26T19:58:07.430Z,102310.35
2019-03-26T20:03:12.178Z,102311.36
2019-03-26T20:08:17.008Z,102315.81
2019-03-26T20:13:24.543Z,102317.17
2019-03-26T20:18:32.995Z,102332.70
2019-03-26T20:23:41.027Z,102327.16
2019-03-26T20:28:47.536Z,102326.36
2019-03-26T20:33:54.121Z,102330.20
2019-03-26T20:38:58.747Z,102334.39
2019-03-26T20:44:02.258Z,102346.31
2019-03-26T20:49:06.145Z,102355.16
2019-03-26T20:54:12.916Z,102356.05
2019-03-26T20:59:17.202Z,102368.59
2019-03-26T21:04:22.351Z,102368.98
2019-03-26T21:09:27.047Z,102367.27
2019-03-26T21:14:31.080Z,102363.65
2019-03-26T21:19:34.672Z,102363.02
2019-03-26T21:24:39.250Z,102362.92
2019-03-26T21:29:43.506Z,102365.08
2019-03-26T21:34:48.010Z,102350.27
2019-03-26T21:39:51.844Z,102368.16
2019-03-26T21:44:55.353Z,102370.45
2019-03-26T21:49:58.886Z,102374.81
2019-03-26T21:55:02.700Z,102375.84
2019-03-26T22:00:08.799Z,102373.64
2019-03-26T22:05:12.617Z,102384.75
2019-03-26T22:10:16.609Z,102407.71
2019-03-26T22:15:20.459Z,102408.85
2019-03-26T22:20:24.772Z,102416.64
2019-03-26T22:25:29.166Z,102417.79
2019-03-26T22:30:32.755Z,102415.17
2019-03-26T22:35:36.570Z,102425.95
2019-03-26T22:40:40.703Z,102429.16
2019-03-26T22:45:44.444Z,102440.13
2019-03-26T22:50:48.664Z,102455.45
2019-03-26T22:55:52.426Z,102465.98
2019-03-26T23:00:56.458Z,102466.45
2019-03-26T23:06:00.275Z,102461.80
2019-03-26T23:11:03.825Z,102464.20
2019-03-26T23:16:08.125Z,102468.26
2019-03-26T23:21:11.254Z,102472.91
2019-03-26T23:26:15.168Z,102468.60
2019-03-26T23:31:18.693Z,102476.36
2019-03-26T23:36:22.660Z,102476.88
2019-03-26T23:41:26.778Z,102463.06
2019-03-26T23:46:30.677Z,102457.63
2019-03-26T23:51:34.897Z,102464.31
2019-03-26T23:56:38.847Z,102468.71
